sensor_id;sensor_type;location;lat;lon;timestamp;pressure;altitude;pressure_sealevel;temperature;humidity
5877;BME280;2964;42.144;24.730;2022-09-03T00:02:26;146528.06;;;19.99;100.00
5877;BME280;2964;42.144;24.730;2022-09-03T00:05:02;146581.16;;;20.21;100.00
5877;BME280;2964;42.144;24.730;2022-09-03T00:07:35;146609.00;;;20.32;100.00
5877;BME280;2964;42.144;24.730;2022-09-03T00:10:08;146612.78;;;20.34;100.00
5877;BME280;2964;42.144;24.730;2022-09-03T00:12:39;146641.94;;;20.46;100.00
5877;BME280;2964;42.144;24.730;2022-09-03T00:15:10;146650.78;;;20.49;100.00
5877;BME280;2964;42.144;24.730;2022-09-03T00:17:40;146583.72;;;20.22;100.00
5877;BME280;2964;42.144;24.730;2022-09-03T00:20:12;146507.78;;;19.91;100.00
5877;BME280;2964;42.144;24.730;2022-09-03T00:22:43;146443.25;;;19.65;100.00
5877;BME280;2964;42.144;24.730;2022-09-03T00:25:23;146426.78;;;19.58;100.00
5877;BME280;2964;42.144;24.730;2022-09-03T00:27:53;146415.44;;;19.54;100.00
5877;BME280;2964;42.144;24.730;2022-09-03T00:30:21;146377.47;;;19.38;100.00
5877;BME280;2964;42.144;24.730;2022-09-03T00:32:52;146419.22;;;19.55;100.00
5877;BME280;2964;42.144;24.730;2022-09-03T00:35:25;146380.00;;;19.39;100.00
5877;BME280;2964;42.144;24.730;2022-09-03T00:37:53;146369.91;;;19.35;100.00
5877;BME280;2964;42.144;24.730;2022-09-03T00:40:46;146366.09;;;19.34;100.00
5877;BME280;2964;42.144;24.730;2022-09-03T00:43:21;146388.88;;;19.43;100.00
5877;BME280;2964;42.144;24.730;2022-09-03T00:45:56;146369.91;;;19.35;100.00
5877;BME280;2964;42.144;24.730;2022-09-03T00:48:34;146362.31;;;19.32;100.00
5877;BME280;2964;42.144;24.730;2022-09-03T00:51:14;146367.34;;;19.34;100.00
5877;BME280;2964;42.144;24.730;2022-09-03T00:53:57;146321.84;;;19.16;100.00
5877;BME280;2964;42.144;24.730;2022-09-03T00:56:35;146337.03;;;19.22;100.00
5877;BME280;2964;42.144;24.730;2022-09-03T00:59:16;146309.19;;;19.10;100.00
5877;BME280;2964;42.144;24.730;2022-09-03T01:01:49;146325.63;;;19.17;100.00
5877;BME280;2964;42.144;24.730;2022-09-03T01:04:30;146321.84;;;19.16;100.00
5877;BME280;2964;42.144;24.730;2022-09-03T01:07:08;146326.88;;;19.18;100.00
5877;BME280;2964;42.144;24.730;2022-09-03T01:09:48;146328.19;;;19.18;100.00
5877;BME280;2964;42.144;24.730;2022-09-03T01:12:27;146331.94;;;19.20;100.00
5877;BME280;2964;42.144;24.730;2022-09-03T01:15:05;146333.25;;;19.20;100.00
5877;BME280;2964;42.144;24.730;2022-09-03T01:17:44;146331.94;;;19.20;100.00
5877;BME280;2964;42.144;24.730;2022-09-03T01:20:25;146299.09;;;19.06;100.00
5877;BME280;2964;42.144;24.730;2022-09-03T01:26:27;146305.44;;;19.09;100.00
5877;BME280;2964;42.144;24.730;2022-09-03T01:29:02;146297.84;;;19.06;100.00
5877;BME280;2964;42.144;24.730;2022-09-03T01:31:36;146324.38;;;19.17;100.00
5877;BME280;2964;42.144;24.730;2022-09-03T01:34:14;146286.44;;;19.01;100.00
5877;BME280;2964;42.144;24.730;2022-09-03T01:36:50;146286.44;;;19.01;100.00
5877;BME280;2964;42.144;24.730;2022-09-03T01:39:28;146304.13;;;19.08;100.00
5877;BME280;2964;42.144;24.730;2022-09-03T01:42:06;146307.94;;;19.10;100.00
5877;BME280;2964;42.144;24.730;2022-09-03T01:45:18;146306.69;;;19.09;100.00
5877;BME280;2964;42.144;24.730;2022-09-03T01:48:01;146310.47;;;19.11;100.00
5877;BME280;2964;42.144;24.730;2022-09-03T01:50:39;146304.13;;;19.08;100.00
5877;BME280;2964;42.144;24.730;2022-09-03T01:53:15;146309.19;;;19.10;100.00
5877;BME280;2964;42.144;24.730;2022-09-03T01:55:56;146334.50;;;19.21;100.00
5877;BME280;2964;42.144;24.730;2022-09-03T01:58:32;146267.47;;;18.94;100.00
5877;BME280;2964;42.144;24.730;2022-09-03T02:01:10;146302.88;;;19.08;100.00
5877;BME280;2964;42.144;24.730;2022-09-03T02:03:41;146314.28;;;19.13;100.00
5877;BME280;2964;42.144;24.730;2022-09-03T02:06:11;146321.84;;;19.16;100.00
5877;BME280;2964;42.144;24.730;2022-09-03T02:08:38;146315.53;;;19.13;100.00
5877;BME280;2964;42.144;24.730;2022-09-03T02:11:08;146319.34;;;19.15;100.00
5877;BME280;2964;42.144;24.730;2022-09-03T02:13:37;146321.84;;;19.16;100.00
5877;BME280;2964;42.144;24.730;2022-09-03T02:16:11;146314.28;;;19.13;100.00
5877;BME280;2964;42.144;24.730;2022-09-03T02:18:42;146329.44;;;19.19;100.00
5877;BME280;2964;42.144;24.730;2022-09-03T02:21:12;146324.38;;;19.17;100.00
5877;BME280;2964;42.144;24.730;2022-09-03T02:23:42;146306.69;;;19.09;100.00
5877;BME280;2964;42.144;24.730;2022-09-03T02:26:11;146311.72;;;19.12;100.00
5877;BME280;2964;42.144;24.730;2022-09-03T02:28:38;146339.53;;;19.23;100.00
5877;BME280;2964;42.144;24.730;2022-09-03T02:31:06;146323.09;;;19.16;100.00
5877;BME280;2964;42.144;24.730;2022-09-03T02:33:36;146329.44;;;19.19;100.00
5877;BME280;2964;42.144;24.730;2022-09-03T02:36:05;146311.72;;;19.12;100.00
5877;BME280;2964;42.144;24.730;2022-09-03T02:38:33;146273.81;;;18.96;100.00
5877;BME280;2964;42.144;24.730;2022-09-03T02:41:00;146278.88;;;18.98;100.00
5877;BME280;2964;42.144;24.730;2022-09-03T02:43:31;146295.28;;;19.05;100.00
5877;BME280;2964;42.144;24.730;2022-09-03T02:46:01;146190.31;;;18.62;100.00
5877;BME280;2964;42.144;24.730;2022-09-03T02:48:31;146256.13;;;18.89;100.00
5877;BME280;2964;42.144;24.730;2022-09-03T02:50:58;146304.13;;;19.08;100.00
5877;BME280;2964;42.144;24.730;2022-09-03T02:53:25;146299.09;;;19.06;100.00
5877;BME280;2964;42.144;24.730;2022-09-03T02:55:57;146300.34;;;19.07;100.00
5877;BME280;2964;42.144;24.730;2022-09-03T02:58:23;146307.94;;;19.10;100.00
5877;BME280;2964;42.144;24.730;2022-09-03T03:00:50;146292.78;;;19.04;100.00
5877;BME280;2964;42.144;24.730;2022-09-03T03:03:18;146278.88;;;18.98;100.00
5877;BME280;2964;42.144;24.730;2022-09-03T03:05:48;146271.28;;;18.95;100.00
5877;BME280;2964;42.144;24.730;2022-09-03T03:08:17;146259.94;;;18.90;100.00
5877;BME280;2964;42.144;24.730;2022-09-03T03:10:45;146252.31;;;18.87;100.00
5877;BME280;2964;42.144;24.730;2022-09-03T03:13:14;146215.63;;;18.73;100.00
5877;BME280;2964;42.144;24.730;2022-09-03T03:15:41;146253.56;;;18.88;100.00
5877;BME280;2964;42.144;24.730;2022-09-03T03:18:08;146238.41;;;18.82;100.00
5877;BME280;2964;42.144;24.730;2022-09-03T03:20:36;146243.47;;;18.84;100.00
5877;BME280;2964;42.144;24.730;2022-09-03T03:23:05;146176.41;;;18.57;100.00
5877;BME280;2964;42.144;24.730;2022-09-03T03:25:32;146238.41;;;18.82;100.00
5877;BME280;2964;42.144;24.730;2022-09-03T03:27:59;146220.69;;;18.75;100.00
5877;BME280;2964;42.144;24.730;2022-09-03T03:30:26;146218.13;;;18.74;100.00
5877;BME280;2964;42.144;24.730;2022-09-03T03:32:53;146225.72;;;18.77;100.00
5877;BME280;2964;42.144;24.730;2022-09-03T03:35:20;146235.88;;;18.81;100.00
5877;BME280;2964;42.144;24.730;2022-09-03T03:37:47;146253.56;;;18.88;100.00
5877;BME280;2964;42.144;24.730;2022-09-03T03:40:15;146214.38;;;18.72;100.00
5877;BME280;2964;42.144;24.730;2022-09-03T03:42:42;146214.38;;;18.72;100.00
5877;BME280;2964;42.144;24.730;2022-09-03T03:45:09;146225.72;;;18.77;100.00
5877;BME280;2964;42.144;24.730;2022-09-03T03:47:36;146242.22;;;18.83;100.00
5877;BME280;2964;42.144;24.730;2022-09-03T03:50:04;146184.03;;;18.60;100.00
5877;BME280;2964;42.144;24.730;2022-09-03T03:52:30;146230.78;;;18.79;100.00
5877;BME280;2964;42.144;24.730;2022-09-03T03:54:57;146234.56;;;18.80;100.00
5877;BME280;2964;42.144;24.730;2022-09-03T03:57:30;146172.63;;;18.55;100.00
5877;BME280;2964;42.144;24.730;2022-09-03T03:59:57;146202.97;;;18.67;100.00
5877;BME280;2964;42.144;24.730;2022-09-03T04:02:24;146233.31;;;18.80;100.00
5877;BME280;2964;42.144;24.730;2022-09-03T04:04:51;146197.91;;;18.65;100.00
5877;BME280;2964;42.144;24.730;2022-09-03T04:07:17;146253.56;;;18.88;100.00
5877;BME280;2964;42.144;24.730;2022-09-03T04:09:44;146243.47;;;18.84;100.00
5877;BME280;2964;42.144;24.730;2022-09-03T04:12:11;146263.69;;;18.92;100.00
5877;BME280;2964;42.144;24.730;2022-09-03T04:14:39;146261.16;;;18.91;100.00
5877;BME280;2964;42.144;24.730;2022-09-03T04:17:06;146248.53;;;18.86;100.00
5877;BME280;2964;42.144;24.730;2022-09-03T04:19:33;146240.94;;;18.83;100.00
5877;BME280;2964;42.144;24.730;2022-09-03T04:21:59;146292.78;;;19.04;100.00
5877;BME280;2964;42.144;24.730;2022-09-03T04:24:27;146294.03;;;19.04;100.00
5877;BME280;2964;42.144;24.730;2022-09-03T04:26:54;146306.69;;;19.09;100.00
5877;BME280;2964;42.144;24.730;2022-09-03T04:29:21;146338.28;;;19.22;100.00
5877;BME280;2964;42.144;24.730;2022-09-03T04:31:49;146307.94;;;19.10;100.00
5877;BME280;2964;42.144;24.730;2022-09-03T04:34:33;146268.78;;;18.94;100.00
5877;BME280;2964;42.144;24.730;2022-09-03T04:37:00;146356.00;;;19.29;100.00
5877;BME280;2964;42.144;24.730;2022-09-03T04:39:26;146364.84;;;19.33;100.00
5877;BME280;2964;42.144;24.730;2022-09-03T04:41:53;146367.34;;;19.34;100.00
5877;BME280;2964;42.144;24.730;2022-09-03T04:44:20;146367.34;;;19.34;100.00
5877;BME280;2964;42.144;24.730;2022-09-03T04:46:46;146386.31;;;19.42;100.00
5877;BME280;2964;42.144;24.730;2022-09-03T04:49:15;146364.84;;;19.33;100.00
5877;BME280;2964;42.144;24.730;2022-09-03T04:51:42;146387.63;;;19.42;100.00
5877;BME280;2964;42.144;24.730;2022-09-03T04:54:09;146438.19;;;19.63;100.00
5877;BME280;2964;42.144;24.730;2022-09-03T04:56:37;146455.91;;;19.70;100.00
5877;BME280;2964;42.144;24.730;2022-09-03T04:59:06;146445.75;;;19.66;100.00
5877;BME280;2964;42.144;24.730;2022-09-03T05:01:35;146492.63;;;19.85;100.00
5877;BME280;2964;42.144;24.730;2022-09-03T05:04:02;146496.44;;;19.86;100.00
5877;BME280;2964;42.144;24.730;2022-09-03T05:06:31;146486.28;;;19.82;100.00
5877;BME280;2964;42.144;24.730;2022-09-03T05:08:59;146531.81;;;20.01;100.00
5877;BME280;2964;42.144;24.730;2022-09-03T05:11:27;146606.50;;;20.31;100.00
5877;BME280;2964;42.144;24.730;2022-09-03T05:13:55;146724.25;;;20.79;100.00
5877;BME280;2964;42.144;24.730;2022-09-03T05:16:24;146909.09;;;21.54;100.00
5877;BME280;2964;42.144;24.730;2022-09-03T05:18:53;147218.31;;;22.79;99.83
5877;BME280;2964;42.144;24.730;2022-09-03T05:21:20;147516.41;;;24.00;92.79
5877;BME280;2964;42.144;24.730;2022-09-03T05:23:50;147852.78;;;25.36;86.95
5877;BME280;2964;42.144;24.730;2022-09-03T05:26:19;148021.75;;;26.04;84.88
5877;BME280;2964;42.144;24.730;2022-09-03T05:28:46;148275.94;;;27.07;79.33
5877;BME280;2964;42.144;24.730;2022-09-03T05:31:15;148212.38;;;26.81;80.12
5877;BME280;2964;42.144;24.730;2022-09-03T05:33:43;148274.66;;;27.06;78.20
5877;BME280;2964;42.144;24.730;2022-09-03T05:36:12;148457.78;;;27.80;75.32
5877;BME280;2964;42.144;24.730;2022-09-03T05:38:40;148457.78;;;27.80;72.10
5877;BME280;2964;42.144;24.730;2022-09-03T05:41:09;148722.50;;;28.87;70.46
5877;BME280;2964;42.144;24.730;2022-09-03T05:43:36;148597.72;;;28.37;70.60
5877;BME280;2964;42.144;24.730;2022-09-03T05:46:05;149114.72;;;30.45;66.55
5877;BME280;2964;42.144;24.730;2022-09-03T05:48:34;149142.78;;;30.56;63.03
5877;BME280;2964;42.144;24.730;2022-09-03T05:51:02;148837.06;;;29.33;68.71
5877;BME280;2964;42.144;24.730;2022-09-03T05:53:31;149045.91;;;30.17;66.48
5877;BME280;2964;42.144;24.730;2022-09-03T05:55:59;148691.94;;;28.75;70.68
5877;BME280;2964;42.144;24.730;2022-09-03T05:58:30;148975.88;;;29.89;67.50
5877;BME280;2964;42.144;24.730;2022-09-03T06:00:57;149340.31;;;31.36;63.50
5877;BME280;2964;42.144;24.730;2022-09-03T06:03:24;149184.81;;;30.73;64.55
5877;BME280;2964;42.144;24.730;2022-09-03T06:05:52;149216.66;;;30.86;63.11
5877;BME280;2964;42.144;24.730;2022-09-03T06:08:35;149540.50;;;32.17;59.07
5877;BME280;2964;42.144;24.730;2022-09-03T06:11:08;149613.19;;;32.46;60.07
5877;BME280;2964;42.144;24.730;2022-09-03T06:13:45;149661.72;;;32.65;58.72
5877;BME280;2964;42.144;24.730;2022-09-03T06:16:20;149641.22;;;32.57;59.04
5877;BME280;2964;42.144;24.730;2022-09-03T06:18:48;149545.63;;;32.19;59.60
5877;BME280;2964;42.144;24.730;2022-09-03T06:21:18;149767.56;;;33.08;57.24
5877;BME280;2964;42.144;24.730;2022-09-03T06:23:52;149619.59;;;32.48;58.15
5877;BME280;2964;42.144;24.730;2022-09-03T06:26:21;149395.16;;;31.58;59.63
5877;BME280;2964;42.144;24.730;2022-09-03T06:31:44;148569.75;;;28.25;66.88
5877;BME280;2964;42.144;24.730;2022-09-03T06:34:25;148790.00;;;29.14;66.22
5877;BME280;2964;42.144;24.730;2022-09-03T06:36:57;148150.09;;;26.56;69.68
5877;BME280;2964;42.144;24.730;2022-09-03T06:39:30;148152.59;;;26.57;71.34
5877;BME280;2964;42.144;24.730;2022-09-03T06:42:17;147666.13;;;24.60;73.90
5877;BME280;2964;42.144;24.730;2022-09-03T06:44:45;147949.34;;;25.75;76.33
5877;BME280;2964;42.144;24.730;2022-09-03T06:47:15;148455.22;;;27.79;72.16
5877;BME280;2964;42.144;24.730;2022-09-03T06:49:42;147768.97;;;25.02;73.98
5877;BME280;2964;42.144;24.730;2022-09-03T06:52:27;147776.59;;;25.05;79.47
5877;BME280;2964;42.144;24.730;2022-09-03T06:54:54;147959.47;;;25.79;78.67
5877;BME280;2964;42.144;24.730;2022-09-03T06:57:21;148000.19;;;25.95;77.50
5877;BME280;2964;42.144;24.730;2022-09-03T06:59:53;148109.44;;;26.39;74.53
5877;BME280;2964;42.144;24.730;2022-09-03T07:02:20;148607.94;;;28.41;70.91
5877;BME280;2964;42.144;24.730;2022-09-03T07:04:47;148963.13;;;29.84;66.75
5877;BME280;2964;42.144;24.730;2022-09-03T07:07:14;149489.47;;;31.96;61.08
5877;BME280;2964;42.144;24.730;2022-09-03T07:09:41;149882.44;;;33.54;57.01
5877;BME280;2964;42.144;24.730;2022-09-03T07:12:08;149430.84;;;31.72;59.33
5877;BME280;2964;42.144;24.730;2022-09-03T07:14:36;149701.28;;;32.81;57.55
5877;BME280;2964;42.144;24.730;2022-09-03T07:17:07;149444.88;;;31.78;58.53
5877;BME280;2964;42.144;24.730;2022-09-03T07:23:06;150049.75;;;34.21;52.67
5877;BME280;2964;42.144;24.730;2022-09-03T07:25:38;150058.66;;;34.25;50.93
5877;BME280;2964;42.144;24.730;2022-09-03T07:28:11;150165.97;;;34.68;49.78
5877;BME280;2964;42.144;24.730;2022-09-03T07:31:00;150530.06;;;36.14;46.23
5877;BME280;2964;42.144;24.730;2022-09-03T07:33:33;149996.09;;;34.00;49.32
5877;BME280;2964;42.144;24.730;2022-09-03T07:36:07;149697.44;;;32.80;53.11
5877;BME280;2964;42.144;24.730;2022-09-03T07:38:40;149509.94;;;32.04;51.01
5877;BME280;2964;42.144;24.730;2022-09-03T07:41:14;149836.50;;;33.36;51.28
5877;BME280;2964;42.144;24.730;2022-09-03T07:43:45;149660.44;;;32.65;53.18
5877;BME280;2964;42.144;24.730;2022-09-03T07:46:26;149710.16;;;32.85;50.78
5877;BME280;2964;42.144;24.730;2022-09-03T07:48:55;149191.16;;;30.76;55.01
5877;BME280;2964;42.144;24.730;2022-09-03T07:51:24;149341.56;;;31.36;53.96
5877;BME280;2964;42.144;24.730;2022-09-03T07:53:54;149623.41;;;32.50;52.39
5877;BME280;2964;42.144;24.730;2022-09-03T07:56:22;149499.69;;;32.00;52.96
5877;BME280;2964;42.144;24.730;2022-09-03T07:58:49;149126.19;;;30.50;55.02
5877;BME280;2964;42.144;24.730;2022-09-03T08:01:17;149108.38;;;30.43;56.36
5877;BME280;2964;42.144;24.730;2022-09-03T08:03:45;149267.66;;;31.07;56.22
5877;BME280;2964;42.144;24.730;2022-09-03T08:06:27;149217.91;;;30.87;56.63
5877;BME280;2964;42.144;24.730;2022-09-03T08:08:54;149511.19;;;32.05;53.08
5877;BME280;2964;42.144;24.730;2022-09-03T08:11:23;149414.28;;;31.66;54.00
5877;BME280;2964;42.144;24.730;2022-09-03T08:13:54;149003.88;;;30.00;59.35
5877;BME280;2964;42.144;24.730;2022-09-03T08:16:25;148888.00;;;29.54;60.40
5877;BME280;2964;42.144;24.730;2022-09-03T08:18:52;149121.13;;;30.48;58.08
5877;BME280;2964;42.144;24.730;2022-09-03T08:21:22;149061.22;;;30.24;58.81
5877;BME280;2964;42.144;24.730;2022-09-03T08:23:51;149230.72;;;30.92;57.10
5877;BME280;2964;42.144;24.730;2022-09-03T08:26:20;149131.28;;;30.52;57.25
5877;BME280;2964;42.144;24.730;2022-09-03T08:28:47;148983.53;;;29.92;58.66
5877;BME280;2964;42.144;24.730;2022-09-03T08:31:15;149089.28;;;30.35;58.49
5877;BME280;2964;42.144;24.730;2022-09-03T08:33:44;149084.19;;;30.33;58.60
5877;BME280;2964;42.144;24.730;2022-09-03T08:36:13;149303.34;;;31.21;56.13
5877;BME280;2964;42.144;24.730;2022-09-03T08:38:43;149267.66;;;31.07;56.39
5877;BME280;2964;42.144;24.730;2022-09-03T08:41:12;149285.50;;;31.14;55.36
5877;BME280;2964;42.144;24.730;2022-09-03T08:44:05;149016.63;;;30.06;58.20
5877;BME280;2964;42.144;24.730;2022-09-03T08:46:42;148862.50;;;29.43;58.85
5877;BME280;2964;42.144;24.730;2022-09-03T08:49:14;148881.63;;;29.51;58.67
5877;BME280;2964;42.144;24.730;2022-09-03T08:51:43;149175.88;;;30.70;55.17
5877;BME280;2964;42.144;24.730;2022-09-03T08:54:14;149155.47;;;30.62;56.36
5877;BME280;2964;42.144;24.730;2022-09-03T08:56:41;149203.91;;;30.81;55.60
5877;BME280;2964;42.144;24.730;2022-09-03T08:59:09;149275.31;;;31.10;55.36
5877;BME280;2964;42.144;24.730;2022-09-03T09:01:44;149507.34;;;32.03;51.75
5877;BME280;2964;42.144;24.730;2022-09-03T09:04:26;149763.75;;;33.06;48.98
5877;BME280;2964;42.144;24.730;2022-09-03T09:07:02;149933.53;;;33.75;48.08
5877;BME280;2964;42.144;24.730;2022-09-03T09:09:39;149520.13;;;32.08;51.11
5877;BME280;2964;42.144;24.730;2022-09-03T09:12:13;149662.97;;;32.66;50.19
5877;BME280;2964;42.144;24.730;2022-09-03T09:14:44;150137.81;;;34.57;47.43
5877;BME280;2964;42.144;24.730;2022-09-03T09:17:28;150096.97;;;34.40;47.41
5877;BME280;2964;42.144;24.730;2022-09-03T09:20:05;149974.38;;;33.91;46.56
5877;BME280;2964;42.144;24.730;2022-09-03T09:22:37;149770.16;;;33.09;49.05
5877;BME280;2964;42.144;24.730;2022-09-03T09:25:11;150030.53;;;34.14;47.26
5877;BME280;2964;42.144;24.730;2022-09-03T09:27:47;150271.94;;;35.11;45.90
5877;BME280;2964;42.144;24.730;2022-09-03T09:30:17;150491.75;;;35.99;44.48
5877;BME280;2964;42.144;24.730;2022-09-03T09:32:44;150482.81;;;35.95;43.05
5877;BME280;2964;42.144;24.730;2022-09-03T09:35:12;150608.06;;;36.46;41.63
5877;BME280;2964;42.144;24.730;2022-09-03T09:37:46;150429.13;;;35.74;43.39
5877;BME280;2964;42.144;24.730;2022-09-03T09:40:28;149645.13;;;32.59;48.56
5877;BME280;2964;42.144;24.730;2022-09-03T09:43:09;150132.72;;;34.55;45.33
5877;BME280;2964;42.144;24.730;2022-09-03T09:45:37;150242.59;;;34.99;44.24
5877;BME280;2964;42.144;24.730;2022-09-03T09:48:09;149782.91;;;33.14;47.78
5877;BME280;2964;42.144;24.730;2022-09-03T09:50:38;149945.03;;;33.79;44.94
5877;BME280;2964;42.144;24.730;2022-09-03T09:53:07;150154.41;;;34.64;45.87
5877;BME280;2964;42.144;24.730;2022-09-03T09:55:53;150117.38;;;34.49;44.96
5877;BME280;2964;42.144;24.730;2022-09-03T09:58:22;149964.16;;;33.87;45.26
5877;BME280;2964;42.144;24.730;2022-09-03T10:01:03;150541.66;;;36.19;42.30
5877;BME280;2964;42.144;24.730;2022-09-03T10:03:40;150596.59;;;36.41;40.73
5877;BME280;2964;42.144;24.730;2022-09-03T10:06:22;150326.91;;;35.33;42.25
5877;BME280;2964;42.144;24.730;2022-09-03T10:09:08;150035.63;;;34.16;45.51
5877;BME280;2964;42.144;24.730;2022-09-03T10:11:41;149376.06;;;31.50;49.99
5877;BME280;2964;42.144;24.730;2022-09-03T10:14:17;149318.63;;;31.27;50.46
5877;BME280;2964;42.144;24.730;2022-09-03T10:16:49;149317.38;;;31.27;50.34
5877;BME280;2964;42.144;24.730;2022-09-03T10:19:24;149219.19;;;30.87;52.54
5877;BME280;2964;42.144;24.730;2022-09-03T10:22:02;148905.81;;;29.61;54.33
5877;BME280;2964;42.144;24.730;2022-09-03T10:24:38;148782.28;;;29.11;57.73
5877;BME280;2964;42.144;24.730;2022-09-03T10:27:12;148679.19;;;28.69;59.86
5877;BME280;2964;42.144;24.730;2022-09-03T10:29:40;148784.81;;;29.12;57.04
5877;BME280;2964;42.144;24.730;2022-09-03T10:32:19;148515.03;;;28.03;59.90
5877;BME280;2964;42.144;24.730;2022-09-03T10:34:55;148704.66;;;28.80;59.76
5877;BME280;2964;42.144;24.730;2022-09-03T10:37:34;148725.00;;;28.88;58.89
5877;BME280;2964;42.144;24.730;2022-09-03T10:40:15;148786.13;;;29.13;57.88
5877;BME280;2964;42.144;24.730;2022-09-03T10:42:52;148825.59;;;29.29;57.93
5877;BME280;2964;42.144;24.730;2022-09-03T10:45:29;148872.72;;;29.48;58.31
5877;BME280;2964;42.144;24.730;2022-09-03T10:48:19;148859.97;;;29.42;58.07
5877;BME280;2964;42.144;24.730;2022-09-03T10:51:08;148735.22;;;28.92;57.53
5877;BME280;2964;42.144;24.730;2022-09-03T10:53:55;148539.25;;;28.13;59.53
5877;BME280;2964;42.144;24.730;2022-09-03T10:56:31;148727.56;;;28.89;58.79
5877;BME280;2964;42.144;24.730;2022-09-03T10:59:13;148783.56;;;29.12;59.33
5877;BME280;2964;42.144;24.730;2022-09-03T11:01:51;148754.31;;;29.00;56.83
5877;BME280;2964;42.144;24.730;2022-09-03T11:04:27;148644.88;;;28.56;57.24
5877;BME280;2964;42.144;24.730;2022-09-03T11:06:59;148699.59;;;28.78;57.32
5877;BME280;2964;42.144;24.730;2022-09-03T11:09:32;148708.50;;;28.81;58.17
5877;BME280;2964;42.144;24.730;2022-09-03T11:12:04;148739.00;;;28.94;57.70
5877;BME280;2964;42.144;24.730;2022-09-03T11:14:37;148730.09;;;28.90;58.67
5877;BME280;2964;42.144;24.730;2022-09-03T11:17:09;148563.41;;;28.23;59.95
5877;BME280;2964;42.144;24.730;2022-09-03T11:19:41;148446.31;;;27.76;59.60
5877;BME280;2964;42.144;24.730;2022-09-03T11:22:13;148661.38;;;28.62;58.63
5877;BME280;2964;42.144;24.730;2022-09-03T11:24:43;148691.94;;;28.75;58.82
5877;BME280;2964;42.144;24.730;2022-09-03T11:27:21;148683.03;;;28.71;58.49
5877;BME280;2964;42.144;24.730;2022-09-03T11:29:59;148666.50;;;28.64;58.12
5877;BME280;2964;42.144;24.730;2022-09-03T11:32:35;148663.94;;;28.63;58.57
5877;BME280;2964;42.144;24.730;2022-09-03T11:35:13;148559.56;;;28.21;58.85
5877;BME280;2964;42.144;24.730;2022-09-03T11:37:48;148656.28;;;28.60;56.71
5877;BME280;2964;42.144;24.730;2022-09-03T11:40:17;148623.19;;;28.47;56.94
5877;BME280;2964;42.144;24.730;2022-09-03T11:42:46;148586.28;;;28.32;58.02
5877;BME280;2964;42.144;24.730;2022-09-03T11:45:23;148559.56;;;28.21;57.65
5877;BME280;2964;42.144;24.730;2022-09-03T11:47:59;148602.84;;;28.39;57.64
5877;BME280;2964;42.144;24.730;2022-09-03T11:50:27;148583.72;;;28.31;57.72
5877;BME280;2964;42.144;24.730;2022-09-03T11:53:07;148513.78;;;28.03;56.94
5877;BME280;2964;42.144;24.730;2022-09-03T11:55:50;148536.69;;;28.12;57.62
5877;BME280;2964;42.144;24.730;2022-09-03T11:58:24;148551.94;;;28.18;57.08
5877;BME280;2964;42.144;24.730;2022-09-03T12:00:54;148607.94;;;28.41;56.29
5877;BME280;2964;42.144;24.730;2022-09-03T12:03:24;148586.28;;;28.32;55.79
5877;BME280;2964;42.144;24.730;2022-09-03T12:06:18;148632.09;;;28.50;55.96
5877;BME280;2964;42.144;24.730;2022-09-03T12:09:12;148641.06;;;28.54;56.99
5877;BME280;2964;42.144;24.730;2022-09-03T12:11:52;148660.13;;;28.62;56.56
5877;BME280;2964;42.144;24.730;2022-09-03T12:14:28;148652.47;;;28.59;57.45
5877;BME280;2964;42.144;24.730;2022-09-03T12:17:10;148662.69;;;28.63;57.71
5877;BME280;2964;42.144;24.730;2022-09-03T12:19:48;148633.34;;;28.51;56.56
5877;BME280;2964;42.144;24.730;2022-09-03T12:22:17;148642.31;;;28.55;56.22
5877;BME280;2964;42.144;24.730;2022-09-03T12:24:44;148638.47;;;28.53;55.85
5877;BME280;2964;42.144;24.730;2022-09-03T12:27:14;148656.28;;;28.60;56.45
5877;BME280;2964;42.144;24.730;2022-09-03T12:29:51;148675.38;;;28.68;55.48
5877;BME280;2964;42.144;24.730;2022-09-03T12:32:27;148725.00;;;28.88;53.93
5877;BME280;2964;42.144;24.730;2022-09-03T12:34:54;148727.56;;;28.89;53.34
5877;BME280;2964;42.144;24.730;2022-09-03T12:37:22;148679.19;;;28.69;53.16
5877;BME280;2964;42.144;24.730;2022-09-03T12:39:50;148688.09;;;28.73;53.16
5877;BME280;2964;42.144;24.730;2022-09-03T12:42:21;148695.75;;;28.76;53.66
5877;BME280;2964;42.144;24.730;2022-09-03T12:44:49;148679.19;;;28.69;51.92
5877;BME280;2964;42.144;24.730;2022-09-03T12:47:17;148665.22;;;28.64;53.99
5877;BME280;2964;42.144;24.730;2022-09-03T12:49:47;148679.19;;;28.69;52.93
5877;BME280;2964;42.144;24.730;2022-09-03T12:52:17;148641.06;;;28.54;53.29
5877;BME280;2964;42.144;24.730;2022-09-03T12:54:49;148679.19;;;28.69;53.55
5877;BME280;2964;42.144;24.730;2022-09-03T12:57:22;148657.59;;;28.61;53.03
5877;BME280;2964;42.144;24.730;2022-09-03T12:59:54;148651.22;;;28.58;52.93
5877;BME280;2964;42.144;24.730;2022-09-03T13:02:25;148652.47;;;28.59;54.50
5877;BME280;2964;42.144;24.730;2022-09-03T13:04:54;148676.69;;;28.68;53.76
5877;BME280;2964;42.144;24.730;2022-09-03T13:07:28;148630.81;;;28.50;53.90
5877;BME280;2964;42.144;24.730;2022-09-03T13:10:02;148600.28;;;28.38;53.63
5877;BME280;2964;42.144;24.730;2022-09-03T13:12:33;148644.88;;;28.56;53.57
5877;BME280;2964;42.144;24.730;2022-09-03T13:15:15;148689.41;;;28.74;53.89
5877;BME280;2964;42.144;24.730;2022-09-03T13:18:09;148671.59;;;28.66;53.12
5877;BME280;2964;42.144;24.730;2022-09-03T13:20:50;148604.09;;;28.39;52.90
5877;BME280;2964;42.144;24.730;2022-09-03T13:23:35;148677.94;;;28.69;53.13
5877;BME280;2964;42.144;24.730;2022-09-03T13:26:16;148625.75;;;28.48;52.71
5877;BME280;2964;42.144;24.730;2022-09-03T13:28:54;148717.41;;;28.85;52.79
5877;BME280;2964;42.144;24.730;2022-09-03T13:31:28;148677.94;;;28.69;51.67
5877;BME280;2964;42.144;24.730;2022-09-03T13:33:59;148656.28;;;28.60;52.77